Ride Results

Williams Valley Endurance (17-03-2013)
Ride distance: 80.0 km

Outcomes - Williams Valley Endurance (17-03-2013)
Division No. of Entries Retired / DNE Completed Withdrawn Ineligible V/O Percentage Completed
HW 14 - 8 1 - 5 57.14%
MW 22 - 15 1 - 6 68.18%
LW 13 - 10 1 - 2 76.92%
JN 6 - 4 1 - 1 66.67%
Totals 55 - 37 4 - 14 67.27%
Results - Williams Valley Endurance (17-03-2013)
No. Rider Horse Place Time Leg Speeds Total
Km/Hr
H/R bpm
Heavyweight
32 Gary Pevy Halimas Esdikarn 1 (BC) 6:19:00 15.8, 10.0 12.66 33, 45, 51 (Avg:48)
34 Jack Johnson Sharahd Lateefa 2 6:56:00 12.9, 10.1 11.54 51, 48, 55 (Avg:51)
31 Scott Peters Sharahd Jara 2 6:56:00 12.9, 10.1 11.54 31, 42, 58 (Avg:50)
38 Gary Thomas Ben Mariah 4 8:00:00 11.2, 8.7 10.00 33, 44, 54 (Avg:49)
37 Charles Gauci Charleville Lady 5 8:44:00 9.7, 8.5 9.16 37, 45, 53 (Avg:49)
40 Sue Warren Warren Park O.B. One 5 8:44:00 10.7, 7.6 9.16 35, 44, 52 (Avg:48)
35 Steve Brooks A'landell Pirate 7 9:00:00 9.8, 7.8 8.89 38, 42, 46 (Avg:44)
36 Allan Caslick Starwest Scimilou 8 9:05:00 8.9, 8.6 8.81 39, 46, 49 (Avg:47)
41 Joanne Aldwell Monarch Lodge Galaxy Lame L1 0:00:00 9.2 - 35, 48, 49 (Avg:48)
39 Con Bouzianis Conderosa Millenium Silver Widthdrawn L1 0:00:00 - - 46, 53 (Avg:53)
46 Jolene Cole Kurrajong Blue Jeans Lame L1 0:00:00 14.8 - 36, 49 (Avg:49)
44 Jody Harrison Marvin Heart Rate L1 0:00:00 9.1 - 41, 57 (Avg:57)
33 Greg Moore Parkview Armageddon Heart Rate L1 0:00:00 9.7 - 35, 58 (Avg:58)
42 Anthony Parker Conderosa Spartacus Lame P/R 0:00:00 - - 36, 50 (Avg:50)
Middleweight
57 Thomas Hermann TTH Headliner 1 (BC) 5:55:00 15.8, 11.3 13.52 36, 43, 48 (Avg:45)
60 Michael Cummins Winter Hill Alice 2 6:19:00 15.8, 10.0 12.66 40, 44, 54 (Avg:49)
58 Tom Bouzianis Conderosa Sara 3 7:27:00 13.4, 8.5 10.74 34, 40, 46 (Avg:43)
68 Kayte Barnard Candice te 4 7:33:00 11.5, 9.5 10.60 41, 49, 59 (Avg:54)
69 Bree Hollingsworth Lydia Te 4 7:33:00 11.5, 9.5 10.60 38, 49, 59 (Avg:54)
62 Raymond Griffiths Hazeldean Sahara 6 8:00:00 10.6, 9.2 10.00 43, 44, 49 (Avg:46)
64 Andrew Mackinder Sundown Park Cariad 7 8:16:00 10.3, 8.8 9.68 29, 42, 43 (Avg:42)
56 Carol Major Saradon 8 8:44:00 10.7, 7.6 9.16 35, 53, 60 (Avg:56)
66 Nicole Smith Skittles 9 8:56:00 9.2, 8.6 8.96 34, 44, 55 (Avg:49)
45 Peter Kelly Razorback Jack 10 8:59:00 9.6, 8.1 8.91 41, 48, 51 (Avg:49)
63 Mathew Broome Erin Park Spirit 11 9:00:00 9.3, 8.3 8.89 40, 55, 49 (Avg:52)
53 Ben Hudson Velona Joker 11 9:00:00 9.4, 8.3 8.89 41, 48, 51 (Avg:49)
65 Daphne Phillips Shafiq 11 9:00:00 9.3, 8.3 8.89 38, 42, 53 (Avg:47)
54 Terry Wood Tallawarra Holly 14 9:02:00 8.7, 9.0 8.86 32, 44, 44 (Avg:44)
67 Alicia Weed Aberlene Park La Det 15 9:07:00 9.2, 8.2 8.78 43, 48, 52 (Avg:50)
70 Katrina Bodewes Garnee Jaguar Heart Rate L2 0:00:00 9.1, 8.1 - 45, 47, 69 (Avg:58)
59 Talea Hasko-Stewart Conderosa Ozzie Lame L2 0:00:00 13.4, 10.7 - 36, 45, 49 (Avg:47)
52 Debbie Pevy Burren-Dah Walter Lame L2 0:00:00 15.8, 11.3 - 33, 46, 54 (Avg:50)
43 Jennifer Rogers Conderosa Arassim Lame L2 0:00:00 11.2, 8.1 - 36, 41, 45 (Avg:43)
51 Peter Bice Wilcannia Widthdrawn L1 0:00:00 - - 45, 38 (Avg:38)
55 Sasha Buchmann Tallawarra Miracle Lame L1 0:00:00 9.8 - 35, 44 (Avg:44)
61 Monica Majerowski Valinor Park Sakim Metabolics L1 0:00:00 10.1 - 35, 53 (Avg:53)
Lightweight
23 Anne Hills Kerewong Shelfyre 1 (BC) 6:31:00 14.7, 10.0 12.28 39, 42, 53 (Avg:47)
19 Carol Layton Omani City Smoke 2 7:33:00 11.9, 9.2 10.60 43, 44, 50 (Avg:47)
11 Narelle Bush Rowallan Seek 3 7:57:00 11.1, 8.9 10.06 35, 44, 55 (Avg:49)
18 Liesl Baumann Assateague Dolce Dura 4 8:01:00 10.3, 9.5 9.98 28, 42, 46 (Avg:44)
21 Robin Young Razorback Kadance 5 8:44:00 10.7, 7.6 9.16 33, 46, 48 (Avg:47)
17 Karen Anderson Malleegrove Samsara 6 8:56:00 10.3, 7.6 8.96 39, 46, 57 (Avg:51)
15 Julie Brooks Aloha Byshara 7 9:00:00 9.8, 7.8 8.89 37, 40, 53 (Avg:46)
20 Emma Broome Devious Chloe Bella 7 9:00:00 9.3, 8.3 8.89 40, 41, 48 (Avg:44)
12 Wendy Jones Castlebar First Light 7 9:00:00 9.4, 8.3 8.89 37, 38, 45 (Avg:41)
13 Allix Jones Castlebar Belair 7 9:00:00 9.4, 8.3 8.89 34, 42, 46 (Avg:44)
14 Renee Schneider Badia Just Rosie Widthdrawn L2 0:00:00 - - 44, 42, 47 (Avg:44)
16 Cherry Cummins Holly Lame L1 0:00:00 9.3 - 41, 44 (Avg:44)
24 Mary Hollingsworth Riley te Lame L1 0:00:00 11.5 - 41, 49 (Avg:49)
Junior
4 Georgia Curry Macquarie Park Shafeeq 1 (BC) 7:02:00 12.3, 10.3 11.37 51, 50, 56 (Avg:53)
1 Victoria Bice The Byzantine Diamonds 2 8:02:00 10.8, 9.0 9.96 45, 38, 50 (Avg:44)
22 Shantel Nagle Conderosa Zeus 3 8:18:00 11.2, 8.1 9.64 35, 44, 46 (Avg:45)
71 Mia Bodewes Booramby Jacob 4 9:15:00 9.1, 8.1 8.65 36, 40, 50 (Avg:45)
2 Tomeika Bond-Pevy Makhtar Widthdrawn L2 0:00:00 - - 43, 48, 51 (Avg:49)
3 Tayla Warren Warren Park Kiara Lame L1 0:00:00 11.3 - 32, 46 (Avg:46)